CPX248 Details

Departure: Theodore Francis Green State Airport (KPVD)
Arrival: Miami International Airport (KMIA)
Route: JUMPR RIFLE J174 SWL CEBEE WETRO DIW AR22 JORAY HILEY7


Current Weather Information
KPVD 181451Z 31011G20KT 10SM FEW055 FEW300 03/M11 A3026 RMK AO2 SLP246 T00281111 50006
KMIA 181453Z 36005KT 10SM FEW010 SCT130 BKN240 23/19 A3006 RMK AO2 SLP178 T02330194 53013